sensor_id;sensor_type;location;lat;lon;timestamp;temperature;humidity
33863;DHT22;20158;51.436;-2.742;2023-02-01T00:02:05;8.40;65.50
33863;DHT22;20158;51.436;-2.742;2023-02-01T00:04:31;8.40;65.60
33863;DHT22;20158;51.436;-2.742;2023-02-01T00:06:56;8.40;65.60
33863;DHT22;20158;51.436;-2.742;2023-02-01T00:09:23;8.30;65.40
33863;DHT22;20158;51.436;-2.742;2023-02-01T00:11:49;8.40;65.60
33863;DHT22;20158;51.436;-2.742;2023-02-01T00:14:15;8.30;66.00
33863;DHT22;20158;51.436;-2.742;2023-02-01T00:16:41;8.30;65.40
33863;DHT22;20158;51.436;-2.742;2023-02-01T00:19:11;8.30;65.50
33863;DHT22;20158;51.436;-2.742;2023-02-01T00:21:37;8.30;65.50
33863;DHT22;20158;51.436;-2.742;2023-02-01T00:24:04;8.30;65.50
33863;DHT22;20158;51.436;-2.742;2023-02-01T00:26:37;8.30;65.60
33863;DHT22;20158;51.436;-2.742;2023-02-01T00:29:06;8.30;65.60
33863;DHT22;20158;51.436;-2.742;2023-02-01T00:31:33;8.30;65.50
33863;DHT22;20158;51.436;-2.742;2023-02-01T00:33:59;8.30;65.50
33863;DHT22;20158;51.436;-2.742;2023-02-01T00:36:25;8.40;65.70
33863;DHT22;20158;51.436;-2.742;2023-02-01T00:38:51;8.30;65.50
33863;DHT22;20158;51.436;-2.742;2023-02-01T00:41:18;8.40;65.60
33863;DHT22;20158;51.436;-2.742;2023-02-01T00:43:45;8.30;65.40
33863;DHT22;20158;51.436;-2.742;2023-02-01T00:46:12;8.30;65.50
33863;DHT22;20158;51.436;-2.742;2023-02-01T00:48:39;8.30;65.50
33863;DHT22;20158;51.436;-2.742;2023-02-01T00:51:07;8.30;65.50
33863;DHT22;20158;51.436;-2.742;2023-02-01T00:53:34;8.20;65.30
33863;DHT22;20158;51.436;-2.742;2023-02-01T00:56:01;8.30;65.50
33863;DHT22;20158;51.436;-2.742;2023-02-01T00:58:28;8.20;65.40
33863;DHT22;20158;51.436;-2.742;2023-02-01T01:03:31;8.20;65.40
33863;DHT22;20158;51.436;-2.742;2023-02-01T01:06:00;8.20;65.40
33863;DHT22;20158;51.436;-2.742;2023-02-01T01:08:27;8.20;65.40
33863;DHT22;20158;51.436;-2.742;2023-02-01T01:10:53;8.10;65.30
33863;DHT22;20158;51.436;-2.742;2023-02-01T01:13:19;8.10;65.30
33863;DHT22;20158;51.436;-2.742;2023-02-01T01:15:46;8.10;65.30
33863;DHT22;20158;51.436;-2.742;2023-02-01T01:18:12;8.10;65.30
33863;DHT22;20158;51.436;-2.742;2023-02-01T01:20:39;8.10;65.40
33863;DHT22;20158;51.436;-2.742;2023-02-01T01:23:06;8.00;65.30
33863;DHT22;20158;51.436;-2.742;2023-02-01T01:25:36;8.00;65.80
33863;DHT22;20158;51.436;-2.742;2023-02-01T01:28:03;8.00;65.30
33863;DHT22;20158;51.436;-2.742;2023-02-01T01:30:29;8.00;65.30
33863;DHT22;20158;51.436;-2.742;2023-02-01T01:32:55;8.00;65.30
33863;DHT22;20158;51.436;-2.742;2023-02-01T01:35:21;8.00;65.40
33863;DHT22;20158;51.436;-2.742;2023-02-01T01:37:47;8.00;65.40
33863;DHT22;20158;51.436;-2.742;2023-02-01T01:40:13;8.00;65.40
33863;DHT22;20158;51.436;-2.742;2023-02-01T01:42:43;7.90;65.30
33863;DHT22;20158;51.436;-2.742;2023-02-01T01:47:52;7.90;65.40
33863;DHT22;20158;51.436;-2.742;2023-02-01T01:50:40;7.90;65.40
33863;DHT22;20158;51.436;-2.742;2023-02-01T01:53:09;7.90;65.40
33863;DHT22;20158;51.436;-2.742;2023-02-01T01:55:39;7.90;65.40
33863;DHT22;20158;51.436;-2.742;2023-02-01T01:58:16;8.00;66.10
33863;DHT22;20158;51.436;-2.742;2023-02-01T02:00:44;7.90;65.40
33863;DHT22;20158;51.436;-2.742;2023-02-01T02:03:20;7.90;65.40
33863;DHT22;20158;51.436;-2.742;2023-02-01T02:05:49;8.00;65.60
33863;DHT22;20158;51.436;-2.742;2023-02-01T02:08:17;8.00;65.60
33863;DHT22;20158;51.436;-2.742;2023-02-01T02:10:43;7.90;65.40
33863;DHT22;20158;51.436;-2.742;2023-02-01T02:27:46;8.00;65.40
33863;DHT22;20158;51.436;-2.742;2023-02-01T02:34:15;8.00;65.30
33863;DHT22;20158;51.436;-2.742;2023-02-01T02:41:54;8.00;65.30
33863;DHT22;20158;51.436;-2.742;2023-02-01T02:51:04;8.10;65.50
33863;DHT22;20158;51.436;-2.742;2023-02-01T02:54:00;8.00;65.20
33863;DHT22;20158;51.436;-2.742;2023-02-01T02:56:48;8.00;65.10
33863;DHT22;20158;51.436;-2.742;2023-02-01T02:59:34;8.00;65.20
33863;DHT22;20158;51.436;-2.742;2023-02-01T03:02:20;8.00;65.20
33863;DHT22;20158;51.436;-2.742;2023-02-01T03:05:06;8.10;65.40
33863;DHT22;20158;51.436;-2.742;2023-02-01T03:13:13;8.10;65.50
33863;DHT22;20158;51.436;-2.742;2023-02-01T03:15:53;8.10;65.40
33863;DHT22;20158;51.436;-2.742;2023-02-01T03:18:36;8.10;65.30
33863;DHT22;20158;51.436;-2.742;2023-02-01T03:21:10;8.10;65.30
33863;DHT22;20158;51.436;-2.742;2023-02-01T03:23:38;8.20;65.50
33863;DHT22;20158;51.436;-2.742;2023-02-01T03:26:09;8.20;65.50
33863;DHT22;20158;51.436;-2.742;2023-02-01T03:28:38;8.20;65.50
33863;DHT22;20158;51.436;-2.742;2023-02-01T03:31:08;8.20;65.40
33863;DHT22;20158;51.436;-2.742;2023-02-01T03:33:33;8.20;65.50
33863;DHT22;20158;51.436;-2.742;2023-02-01T03:43:55;8.30;65.50
33863;DHT22;20158;51.436;-2.742;2023-02-01T03:46:38;8.40;65.60
33863;DHT22;20158;51.436;-2.742;2023-02-01T03:49:08;8.40;66.10
33863;DHT22;20158;51.436;-2.742;2023-02-01T03:51:39;8.40;65.50
33863;DHT22;20158;51.436;-2.742;2023-02-01T03:54:07;8.40;65.50
33863;DHT22;20158;51.436;-2.742;2023-02-01T03:56:37;8.50;65.60
33863;DHT22;20158;51.436;-2.742;2023-02-01T03:59:04;8.50;65.60
33863;DHT22;20158;51.436;-2.742;2023-02-01T04:01:34;8.50;65.60
33863;DHT22;20158;51.436;-2.742;2023-02-01T04:04:00;8.50;65.60
33863;DHT22;20158;51.436;-2.742;2023-02-01T04:06:26;8.50;65.60
33863;DHT22;20158;51.436;-2.742;2023-02-01T04:08:57;8.50;66.10
33863;DHT22;20158;51.436;-2.742;2023-02-01T04:11:23;8.60;65.80
33863;DHT22;20158;51.436;-2.742;2023-02-01T04:13:48;8.50;65.50
33863;DHT22;20158;51.436;-2.742;2023-02-01T04:16:15;8.60;65.70
33863;DHT22;20158;51.436;-2.742;2023-02-01T04:18:41;8.60;65.70
33863;DHT22;20158;51.436;-2.742;2023-02-01T04:21:06;8.60;65.70
33863;DHT22;20158;51.436;-2.742;2023-02-01T04:23:32;8.60;65.70
33863;DHT22;20158;51.436;-2.742;2023-02-01T04:26:00;8.60;65.60
33863;DHT22;20158;51.436;-2.742;2023-02-01T04:28:27;8.60;65.60
33863;DHT22;20158;51.436;-2.742;2023-02-01T04:30:53;8.60;65.60
33863;DHT22;20158;51.436;-2.742;2023-02-01T04:33:19;8.70;65.70
33863;DHT22;20158;51.436;-2.742;2023-02-01T04:35:45;8.70;65.70
33863;DHT22;20158;51.436;-2.742;2023-02-01T04:38:11;8.70;65.70
33863;DHT22;20158;51.436;-2.742;2023-02-01T04:40:37;8.70;65.70
33863;DHT22;20158;51.436;-2.742;2023-02-01T04:43:03;8.70;65.60
33863;DHT22;20158;51.436;-2.742;2023-02-01T04:45:30;8.70;65.60
33863;DHT22;20158;51.436;-2.742;2023-02-01T04:47:56;8.80;65.70
33863;DHT22;20158;51.436;-2.742;2023-02-01T04:50:22;8.80;65.70
33863;DHT22;20158;51.436;-2.742;2023-02-01T04:52:49;8.80;65.70
33863;DHT22;20158;51.436;-2.742;2023-02-01T04:55:15;8.80;65.70
33863;DHT22;20158;51.436;-2.742;2023-02-01T04:57:41;8.80;65.70
33863;DHT22;20158;51.436;-2.742;2023-02-01T05:00:08;8.80;65.70
33863;DHT22;20158;51.436;-2.742;2023-02-01T05:02:35;8.80;65.70
33863;DHT22;20158;51.436;-2.742;2023-02-01T05:05:01;8.80;65.70
33863;DHT22;20158;51.436;-2.742;2023-02-01T05:07:27;8.80;65.70
33863;DHT22;20158;51.436;-2.742;2023-02-01T05:09:53;8.80;65.70
33863;DHT22;20158;51.436;-2.742;2023-02-01T05:12:19;8.80;65.70
33863;DHT22;20158;51.436;-2.742;2023-02-01T05:15:04;8.80;65.60
33863;DHT22;20158;51.436;-2.742;2023-02-01T05:17:30;8.80;65.60
33863;DHT22;20158;51.436;-2.742;2023-02-01T05:19:56;8.80;65.60
33863;DHT22;20158;51.436;-2.742;2023-02-01T05:22:22;8.80;65.60
33863;DHT22;20158;51.436;-2.742;2023-02-01T05:24:48;8.80;65.50
33863;DHT22;20158;51.436;-2.742;2023-02-01T05:27:14;8.80;65.50
33863;DHT22;20158;51.436;-2.742;2023-02-01T05:29:40;8.90;65.70
33863;DHT22;20158;51.436;-2.742;2023-02-01T05:32:06;8.90;65.80
33863;DHT22;20158;51.436;-2.742;2023-02-01T05:34:32;8.90;65.70
33863;DHT22;20158;51.436;-2.742;2023-02-01T05:36:57;8.90;65.70
33863;DHT22;20158;51.436;-2.742;2023-02-01T05:39:23;8.90;65.70
33863;DHT22;20158;51.436;-2.742;2023-02-01T05:41:50;8.90;66.20
33863;DHT22;20158;51.436;-2.742;2023-02-01T05:44:15;8.80;65.50
33863;DHT22;20158;51.436;-2.742;2023-02-01T05:46:41;8.80;65.50
33863;DHT22;20158;51.436;-2.742;2023-02-01T05:49:07;8.80;65.60
33863;DHT22;20158;51.436;-2.742;2023-02-01T05:51:34;8.80;65.60
33863;DHT22;20158;51.436;-2.742;2023-02-01T05:54:00;8.80;65.60
33863;DHT22;20158;51.436;-2.742;2023-02-01T05:56:25;8.80;65.70
33863;DHT22;20158;51.436;-2.742;2023-02-01T05:58:51;8.70;65.50
33863;DHT22;20158;51.436;-2.742;2023-02-01T06:01:17;8.70;65.50
33863;DHT22;20158;51.436;-2.742;2023-02-01T06:03:43;8.60;65.40
33863;DHT22;20158;51.436;-2.742;2023-02-01T06:06:09;8.60;66.00
33863;DHT22;20158;51.436;-2.742;2023-02-01T06:08:35;8.60;65.50
33863;DHT22;20158;51.436;-2.742;2023-02-01T06:11:04;8.60;65.50
33863;DHT22;20158;51.436;-2.742;2023-02-01T06:13:31;8.60;65.50
33863;DHT22;20158;51.436;-2.742;2023-02-01T06:15:57;8.60;65.50
33863;DHT22;20158;51.436;-2.742;2023-02-01T06:18:26;8.50;65.40
33863;DHT22;20158;51.436;-2.742;2023-02-01T06:20:57;8.50;65.50
33863;DHT22;20158;51.436;-2.742;2023-02-01T06:23:23;8.50;65.50
33863;DHT22;20158;51.436;-2.742;2023-02-01T06:25:51;8.50;65.50
33863;DHT22;20158;51.436;-2.742;2023-02-01T06:28:17;8.50;65.50
33863;DHT22;20158;51.436;-2.742;2023-02-01T06:30:43;8.40;65.30
33863;DHT22;20158;51.436;-2.742;2023-02-01T06:33:13;8.40;65.30
33863;DHT22;20158;51.436;-2.742;2023-02-01T06:35:43;8.40;65.30
33863;DHT22;20158;51.436;-2.742;2023-02-01T06:38:11;8.40;65.30
33863;DHT22;20158;51.436;-2.742;2023-02-01T06:40:38;8.40;65.40
33863;DHT22;20158;51.436;-2.742;2023-02-01T06:43:04;8.40;65.40
33863;DHT22;20158;51.436;-2.742;2023-02-01T06:45:30;8.30;65.20
33863;DHT22;20158;51.436;-2.742;2023-02-01T06:47:58;8.30;65.30
33863;DHT22;20158;51.436;-2.742;2023-02-01T06:50:25;8.30;65.30
33863;DHT22;20158;51.436;-2.742;2023-02-01T06:52:50;8.30;65.30
33863;DHT22;20158;51.436;-2.742;2023-02-01T06:55:16;8.30;65.30
33863;DHT22;20158;51.436;-2.742;2023-02-01T06:57:42;8.20;65.20
33863;DHT22;20158;51.436;-2.742;2023-02-01T07:00:09;8.20;65.20
33863;DHT22;20158;51.436;-2.742;2023-02-01T07:02:35;8.20;65.20
33863;DHT22;20158;51.436;-2.742;2023-02-01T07:05:01;8.20;65.20
33863;DHT22;20158;51.436;-2.742;2023-02-01T07:07:26;8.20;65.20
33863;DHT22;20158;51.436;-2.742;2023-02-01T07:09:52;8.20;65.20
33863;DHT22;20158;51.436;-2.742;2023-02-01T07:12:19;8.20;65.60
33863;DHT22;20158;51.436;-2.742;2023-02-01T07:14:45;8.30;66.20
33863;DHT22;20158;51.436;-2.742;2023-02-01T07:17:11;8.40;66.70
33863;DHT22;20158;51.436;-2.742;2023-02-01T07:19:37;8.50;67.10
33863;DHT22;20158;51.436;-2.742;2023-02-01T07:22:02;8.60;67.30
33863;DHT22;20158;51.436;-2.742;2023-02-01T07:24:28;8.70;67.50
33863;DHT22;20158;51.436;-2.742;2023-02-01T07:26:56;8.90;67.90
33863;DHT22;20158;51.436;-2.742;2023-02-01T07:29:22;9.00;68.10
33863;DHT22;20158;51.436;-2.742;2023-02-01T07:31:47;9.10;68.30
33863;DHT22;20158;51.436;-2.742;2023-02-01T07:34:13;9.20;68.50
33863;DHT22;20158;51.436;-2.742;2023-02-01T07:36:39;9.30;68.70
33863;DHT22;20158;51.436;-2.742;2023-02-01T07:39:06;9.50;69.00
33863;DHT22;20158;51.436;-2.742;2023-02-01T07:41:32;9.50;69.00
33863;DHT22;20158;51.436;-2.742;2023-02-01T07:43:58;9.60;69.10
33863;DHT22;20158;51.436;-2.742;2023-02-01T07:46:24;9.70;69.20
33863;DHT22;20158;51.436;-2.742;2023-02-01T07:48:50;9.80;69.40
33863;DHT22;20158;51.436;-2.742;2023-02-01T07:51:16;9.90;69.50
33863;DHT22;20158;51.436;-2.742;2023-02-01T07:53:44;10.00;69.60
33863;DHT22;20158;51.436;-2.742;2023-02-01T07:56:18;10.00;69.60
33863;DHT22;20158;51.436;-2.742;2023-02-01T07:58:52;10.10;69.80
33863;DHT22;20158;51.436;-2.742;2023-02-01T08:01:22;10.20;70.00
33863;DHT22;20158;51.436;-2.742;2023-02-01T08:03:52;10.30;70.10
33863;DHT22;20158;51.436;-2.742;2023-02-01T08:06:19;10.40;70.20
33863;DHT22;20158;51.436;-2.742;2023-02-01T08:08:46;10.60;70.30
33863;DHT22;20158;51.436;-2.742;2023-02-01T08:11:13;10.70;70.30
33863;DHT22;20158;51.436;-2.742;2023-02-01T08:13:40;10.80;70.40
33863;DHT22;20158;51.436;-2.742;2023-02-01T08:16:07;10.90;70.40
33863;DHT22;20158;51.436;-2.742;2023-02-01T08:18:35;11.00;70.40
33863;DHT22;20158;51.436;-2.742;2023-02-01T08:21:09;11.10;70.40
33863;DHT22;20158;51.436;-2.742;2023-02-01T08:23:38;11.20;70.50
33863;DHT22;20158;51.436;-2.742;2023-02-01T08:26:13;11.30;70.50
33863;DHT22;20158;51.436;-2.742;2023-02-01T08:28:43;11.40;70.50
33863;DHT22;20158;51.436;-2.742;2023-02-01T08:31:11;11.50;70.40
33863;DHT22;20158;51.436;-2.742;2023-02-01T08:33:37;11.70;70.60
33863;DHT22;20158;51.436;-2.742;2023-02-01T08:36:08;11.70;70.40
33863;DHT22;20158;51.436;-2.742;2023-02-01T08:38:36;11.80;70.40
33863;DHT22;20158;51.436;-2.742;2023-02-01T08:41:07;11.90;70.30
33863;DHT22;20158;51.436;-2.742;2023-02-01T08:43:33;12.00;70.20
33863;DHT22;20158;51.436;-2.742;2023-02-01T08:45:59;12.10;70.20
33863;DHT22;20158;51.436;-2.742;2023-02-01T08:48:25;12.20;70.10
33863;DHT22;20158;51.436;-2.742;2023-02-01T08:50:51;12.30;70.00
33863;DHT22;20158;51.436;-2.742;2023-02-01T08:53:17;12.40;69.90
33863;DHT22;20158;51.436;-2.742;2023-02-01T08:55:45;12.50;69.80
33863;DHT22;20158;51.436;-2.742;2023-02-01T08:58:11;12.70;69.80
33863;DHT22;20158;51.436;-2.742;2023-02-01T09:00:39;12.80;69.70
33863;DHT22;20158;51.436;-2.742;2023-02-01T09:03:05;12.90;69.50
33863;DHT22;20158;51.436;-2.742;2023-02-01T09:05:32;13.00;69.40
33863;DHT22;20158;51.436;-2.742;2023-02-01T09:07:59;13.10;69.30
33863;DHT22;20158;51.436;-2.742;2023-02-01T09:10:25;13.20;69.20
33863;DHT22;20158;51.436;-2.742;2023-02-01T09:12:51;13.30;69.00
33863;DHT22;20158;51.436;-2.742;2023-02-01T09:15:17;13.40;68.90
33863;DHT22;20158;51.436;-2.742;2023-02-01T09:17:43;13.60;69.00
33863;DHT22;20158;51.436;-2.742;2023-02-01T09:20:10;13.70;68.80
33863;DHT22;20158;51.436;-2.742;2023-02-01T09:22:36;13.70;68.50
33863;DHT22;20158;51.436;-2.742;2023-02-01T09:25:02;13.80;68.40
33863;DHT22;20158;51.436;-2.742;2023-02-01T09:27:28;13.90;68.30
33863;DHT22;20158;51.436;-2.742;2023-02-01T09:29:54;13.90;68.10
33863;DHT22;20158;51.436;-2.742;2023-02-01T09:32:21;13.90;67.90
33863;DHT22;20158;51.436;-2.742;2023-02-01T09:34:48;14.00;67.80
33863;DHT22;20158;51.436;-2.742;2023-02-01T09:37:14;14.00;67.60
33863;DHT22;20158;51.436;-2.742;2023-02-01T09:39:41;14.00;67.50
33863;DHT22;20158;51.436;-2.742;2023-02-01T09:47:24;14.10;67.10
33863;DHT22;20158;51.436;-2.742;2023-02-01T09:50:08;14.20;67.20
33863;DHT22;20158;51.436;-2.742;2023-02-01T09:52:45;14.10;66.90
33863;DHT22;20158;51.436;-2.742;2023-02-01T09:55:38;14.10;66.90
33863;DHT22;20158;51.436;-2.742;2023-02-01T10:00:58;14.10;66.90
33863;DHT22;20158;51.436;-2.742;2023-02-01T10:03:28;14.10;66.80
33863;DHT22;20158;51.436;-2.742;2023-02-01T10:11:03;14.30;66.80
33863;DHT22;20158;51.436;-2.742;2023-02-01T10:13:49;14.40;66.70
33863;DHT22;20158;51.436;-2.742;2023-02-01T10:21:53;14.50;66.40
33863;DHT22;20158;51.436;-2.742;2023-02-01T10:27:42;14.50;66.10
33863;DHT22;20158;51.436;-2.742;2023-02-01T10:30:26;14.50;65.80
33863;DHT22;20158;51.436;-2.742;2023-02-01T10:35:45;14.20;65.30
33863;DHT22;20158;51.436;-2.742;2023-02-01T10:38:20;14.10;65.30
33863;DHT22;20158;51.436;-2.742;2023-02-01T10:40:48;14.00;65.10
33863;DHT22;20158;51.436;-2.742;2023-02-01T10:43:15;13.90;65.10
33863;DHT22;20158;51.436;-2.742;2023-02-01T10:45:41;13.90;65.10
33863;DHT22;20158;51.436;-2.742;2023-02-01T10:48:08;13.80;65.00
33863;DHT22;20158;51.436;-2.742;2023-02-01T10:50:44;13.70;64.80
33863;DHT22;20158;51.436;-2.742;2023-02-01T10:53:32;13.70;64.70
33863;DHT22;20158;51.436;-2.742;2023-02-01T10:56:12;13.70;64.60
33863;DHT22;20158;51.436;-2.742;2023-02-01T10:58:46;13.70;64.50
33863;DHT22;20158;51.436;-2.742;2023-02-01T11:01:22;13.70;64.40
33863;DHT22;20158;51.436;-2.742;2023-02-01T11:03:55;13.70;64.30
33863;DHT22;20158;51.436;-2.742;2023-02-01T11:06:28;13.70;64.20
33863;DHT22;20158;51.436;-2.742;2023-02-01T11:09:00;13.80;64.20
33863;DHT22;20158;51.436;-2.742;2023-02-01T11:11:27;13.80;64.00
33863;DHT22;20158;51.436;-2.742;2023-02-01T11:14:00;13.90;64.10
33863;DHT22;20158;51.436;-2.742;2023-02-01T11:16:38;13.90;63.80
33863;DHT22;20158;51.436;-2.742;2023-02-01T11:19:05;13.90;63.60
33863;DHT22;20158;51.436;-2.742;2023-02-01T11:21:33;14.00;63.80
33863;DHT22;20158;51.436;-2.742;2023-02-01T11:24:05;14.00;63.70
33863;DHT22;20158;51.436;-2.742;2023-02-01T11:26:40;14.10;63.50
33863;DHT22;20158;51.436;-2.742;2023-02-01T11:29:15;14.10;63.30
33863;DHT22;20158;51.436;-2.742;2023-02-01T11:31:44;14.20;63.20
33863;DHT22;20158;51.436;-2.742;2023-02-01T11:34:24;14.10;63.00
33863;DHT22;20158;51.436;-2.742;2023-02-01T11:36:50;14.20;63.00
33863;DHT22;20158;51.436;-2.742;2023-02-01T11:39:26;14.10;62.90
33863;DHT22;20158;51.436;-2.742;2023-02-01T11:44:42;14.10;62.80
33863;DHT22;20158;51.436;-2.742;2023-02-01T11:49:54;14.20;62.70
33863;DHT22;20158;51.436;-2.742;2023-02-01T11:55:33;14.20;62.80
33863;DHT22;20158;51.436;-2.742;2023-02-01T12:01:02;14.50;62.80
33863;DHT22;20158;51.436;-2.742;2023-02-01T12:06:44;14.70;62.80
33863;DHT22;20158;51.436;-2.742;2023-02-01T12:12:08;14.80;62.50
33863;DHT22;20158;51.436;-2.742;2023-02-01T12:23:04;15.00;62.10
33863;DHT22;20158;51.436;-2.742;2023-02-01T12:34:15;15.00;61.80
33863;DHT22;20158;51.436;-2.742;2023-02-01T12:39:34;15.10;61.70
33863;DHT22;20158;51.436;-2.742;2023-02-01T12:42:10;15.10;61.90
33863;DHT22;20158;51.436;-2.742;2023-02-01T12:45:02;15.10;61.50
33863;DHT22;20158;51.436;-2.742;2023-02-01T12:47:50;15.10;61.40
33863;DHT22;20158;51.436;-2.742;2023-02-01T12:50:27;15.10;61.50
33863;DHT22;20158;51.436;-2.742;2023-02-01T12:53:19;15.10;61.50
33863;DHT22;20158;51.436;-2.742;2023-02-01T12:56:09;15.10;61.40
33863;DHT22;20158;51.436;-2.742;2023-02-01T13:01:27;15.10;61.40
33863;DHT22;20158;51.436;-2.742;2023-02-01T13:04:24;15.10;61.10
33863;DHT22;20158;51.436;-2.742;2023-02-01T13:07:11;15.10;61.10
33863;DHT22;20158;51.436;-2.742;2023-02-01T13:09:52;15.10;61.10
33863;DHT22;20158;51.436;-2.742;2023-02-01T13:12:29;15.10;61.30
33863;DHT22;20158;51.436;-2.742;2023-02-01T13:15:16;15.10;61.20
33863;DHT22;20158;51.436;-2.742;2023-02-01T13:17:44;15.10;61.10
33863;DHT22;20158;51.436;-2.742;2023-02-01T13:25:51;14.90;60.70
33863;DHT22;20158;51.436;-2.742;2023-02-01T13:28:30;14.90;61.00
33863;DHT22;20158;51.436;-2.742;2023-02-01T13:41:59;14.80;60.80
33863;DHT22;20158;51.436;-2.742;2023-02-01T13:44:32;14.90;60.90
33863;DHT22;20158;51.436;-2.742;2023-02-01T13:47:02;14.90;60.80
33863;DHT22;20158;51.436;-2.742;2023-02-01T13:49:38;14.90;60.70
33863;DHT22;20158;51.436;-2.742;2023-02-01T13:52:04;15.00;60.80
33863;DHT22;20158;51.436;-2.742;2023-02-01T13:54:37;15.10;61.00
33863;DHT22;20158;51.436;-2.742;2023-02-01T13:57:06;15.10;61.00
33863;DHT22;20158;51.436;-2.742;2023-02-01T14:05:02;15.30;60.90
33863;DHT22;20158;51.436;-2.742;2023-02-01T14:16:13;15.50;61.00
33863;DHT22;20158;51.436;-2.742;2023-02-01T14:21:18;15.60;61.00
33863;DHT22;20158;51.436;-2.742;2023-02-01T14:26:47;15.60;60.90
33863;DHT22;20158;51.436;-2.742;2023-02-01T14:29:40;15.50;60.70
33863;DHT22;20158;51.436;-2.742;2023-02-01T14:32:30;15.60;60.90
33863;DHT22;20158;51.436;-2.742;2023-02-01T14:34:59;15.60;60.80
33863;DHT22;20158;51.436;-2.742;2023-02-01T14:37:34;15.60;61.00
33863;DHT22;20158;51.436;-2.742;2023-02-01T14:40:03;15.70;61.20
33863;DHT22;20158;51.436;-2.742;2023-02-01T14:47:46;15.80;60.90
33863;DHT22;20158;51.436;-2.742;2023-02-01T14:50:27;15.80;60.90
33863;DHT22;20158;51.436;-2.742;2023-02-01T14:56:04;15.70;60.80
33863;DHT22;20158;51.436;-2.742;2023-02-01T14:58:45;15.60;60.60
33863;DHT22;20158;51.436;-2.742;2023-02-01T15:01:26;15.60;61.20
33863;DHT22;20158;51.436;-2.742;2023-02-01T15:06:36;15.60;60.90
33863;DHT22;20158;51.436;-2.742;2023-02-01T15:09:11;15.50;60.70
33863;DHT22;20158;51.436;-2.742;2023-02-01T15:14:20;15.40;60.70
33863;DHT22;20158;51.436;-2.742;2023-02-01T15:16:46;15.40;60.90
33863;DHT22;20158;51.436;-2.742;2023-02-01T15:19:21;15.40;61.10
33863;DHT22;20158;51.436;-2.742;2023-02-01T15:21:49;15.30;61.00
33863;DHT22;20158;51.436;-2.742;2023-02-01T15:24:24;15.30;61.20
33863;DHT22;20158;51.436;-2.742;2023-02-01T15:26:52;15.40;61.50
33863;DHT22;20158;51.436;-2.742;2023-02-01T15:29:20;15.30;61.40
33863;DHT22;20158;51.436;-2.742;2023-02-01T15:31:51;15.30;61.50
33863;DHT22;20158;51.436;-2.742;2023-02-01T15:34:20;15.30;61.60
33863;DHT22;20158;51.436;-2.742;2023-02-01T15:36:47;15.30;61.70
33863;DHT22;20158;51.436;-2.742;2023-02-01T15:39:23;15.30;61.80
33863;DHT22;20158;51.436;-2.742;2023-02-01T15:42:11;15.30;61.90
33863;DHT22;20158;51.436;-2.742;2023-02-01T15:44:43;15.20;61.80
33863;DHT22;20158;51.436;-2.742;2023-02-01T15:47:26;15.20;61.90
33863;DHT22;20158;51.436;-2.742;2023-02-01T15:49:58;15.20;61.90
33863;DHT22;20158;51.436;-2.742;2023-02-01T15:52:35;15.20;62.00
33863;DHT22;20158;51.436;-2.742;2023-02-01T15:57:50;15.10;62.00
33863;DHT22;20158;51.436;-2.742;2023-02-01T16:00:30;15.10;62.20
33863;DHT22;20158;51.436;-2.742;2023-02-01T16:03:38;15.10;62.30
33863;DHT22;20158;51.436;-2.742;2023-02-01T16:06:25;15.10;62.40
33863;DHT22;20158;51.436;-2.742;2023-02-01T16:09:11;15.00;62.30
33863;DHT22;20158;51.436;-2.742;2023-02-01T16:11:59;15.10;62.50
33863;DHT22;20158;51.436;-2.742;2023-02-01T16:14:25;15.00;62.40
33863;DHT22;20158;51.436;-2.742;2023-02-01T16:16:53;15.00;62.50
33863;DHT22;20158;51.436;-2.742;2023-02-01T16:19:22;15.00;62.50
33863;DHT22;20158;51.436;-2.742;2023-02-01T16:21:54;15.10;62.70
33863;DHT22;20158;51.436;-2.742;2023-02-01T16:24:20;15.10;62.80
33863;DHT22;20158;51.436;-2.742;2023-02-01T16:26:48;15.10;62.80
33863;DHT22;20158;51.436;-2.742;2023-02-01T16:29:14;15.10;62.80
33863;DHT22;20158;51.436;-2.742;2023-02-01T16:31:41;15.10;62.90
33863;DHT22;20158;51.436;-2.742;2023-02-01T16:34:15;15.10;62.90
33863;DHT22;20158;51.436;-2.742;2023-02-01T16:36:43;15.10;62.90
33863;DHT22;20158;51.436;-2.742;2023-02-01T16:39:13;15.10;62.90
33863;DHT22;20158;51.436;-2.742;2023-02-01T16:41:39;15.10;63.00
33863;DHT22;20158;51.436;-2.742;2023-02-01T16:44:06;15.00;62.80
33863;DHT22;20158;51.436;-2.742;2023-02-01T16:46:35;15.00;62.90
33863;DHT22;20158;51.436;-2.742;2023-02-01T16:49:02;15.00;62.90
33863;DHT22;20158;51.436;-2.742;2023-02-01T16:51:29;14.90;62.90
33863;DHT22;20158;51.436;-2.742;2023-02-01T16:53:58;14.90;62.90
33863;DHT22;20158;51.436;-2.742;2023-02-01T16:56:33;14.90;63.00
33863;DHT22;20158;51.436;-2.742;2023-02-01T16:59:01;14.90;63.10
33863;DHT22;20158;51.436;-2.742;2023-02-01T17:01:27;14.80;63.00
33863;DHT22;20158;51.436;-2.742;2023-02-01T17:03:53;14.80;63.20
33863;DHT22;20158;51.436;-2.742;2023-02-01T17:06:25;14.70;63.10
33863;DHT22;20158;51.436;-2.742;2023-02-01T17:08:55;14.70;63.20
33863;DHT22;20158;51.436;-2.742;2023-02-01T17:11:21;14.60;63.20
33863;DHT22;20158;51.436;-2.742;2023-02-01T17:13:47;14.60;63.70
33863;DHT22;20158;51.436;-2.742;2023-02-01T17:16:27;14.50;63.00
33863;DHT22;20158;51.436;-2.742;2023-02-01T17:21:22;14.30;62.70
33863;DHT22;20158;51.436;-2.742;2023-02-01T17:23:49;14.20;62.60
33863;DHT22;20158;51.436;-2.742;2023-02-01T17:26:15;14.10;62.60
33863;DHT22;20158;51.436;-2.742;2023-02-01T17:28:41;14.00;62.50
33863;DHT22;20158;51.436;-2.742;2023-02-01T17:31:10;13.90;62.50
33863;DHT22;20158;51.436;-2.742;2023-02-01T17:33:38;13.80;62.40
33863;DHT22;20158;51.436;-2.742;2023-02-01T17:36:04;13.70;62.60
33863;DHT22;20158;51.436;-2.742;2023-02-01T17:38:34;13.60;62.70
33863;DHT22;20158;51.436;-2.742;2023-02-01T17:41:00;13.50;62.70
33863;DHT22;20158;51.436;-2.742;2023-02-01T17:43:26;13.50;62.80
33863;DHT22;20158;51.436;-2.742;2023-02-01T17:46:04;13.40;62.80
33863;DHT22;20158;51.436;-2.742;2023-02-01T17:48:31;13.30;62.70
33863;DHT22;20158;51.436;-2.742;2023-02-01T17:50:57;13.30;62.90
33863;DHT22;20158;51.436;-2.742;2023-02-01T17:53:24;13.20;63.10
33863;DHT22;20158;51.436;-2.742;2023-02-01T17:55:51;13.20;63.80
33863;DHT22;20158;51.436;-2.742;2023-02-01T17:58:17;13.20;64.20
33863;DHT22;20158;51.436;-2.742;2023-02-01T18:00:45;13.30;64.70
33863;DHT22;20158;51.436;-2.742;2023-02-01T18:03:20;13.40;65.00
33863;DHT22;20158;51.436;-2.742;2023-02-01T18:05:48;13.50;65.40
33863;DHT22;20158;51.436;-2.742;2023-02-01T18:08:20;13.60;65.50
33863;DHT22;20158;51.436;-2.742;2023-02-01T18:10:48;13.70;65.60
33863;DHT22;20158;51.436;-2.742;2023-02-01T18:13:14;13.70;65.90
33863;DHT22;20158;51.436;-2.742;2023-02-01T18:15:40;13.70;65.30
33863;DHT22;20158;51.436;-2.742;2023-02-01T18:18:09;13.60;65.10
33863;DHT22;20158;51.436;-2.742;2023-02-01T18:20:39;13.60;65.20
33863;DHT22;20158;51.436;-2.742;2023-02-01T18:23:19;13.50;65.00
33863;DHT22;20158;51.436;-2.742;2023-02-01T18:25:46;13.40;64.90
33863;DHT22;20158;51.436;-2.742;2023-02-01T18:28:15;13.30;64.80
33863;DHT22;20158;51.436;-2.742;2023-02-01T18:30:46;13.20;64.70